Portada
METAR-TAF:

METAR-TAF

Aeroports :

Dehradun, Índia

latitud: 30-11-23N, longitud: 78-10-49E, altitud: 558 m

METAR: manca

Hora: 00:34 (19:04 UTC)

Pronòstic

L'informe es va fer fa 8 hores i 3 minuts, a les 11:01 UTC
Pronòstic vàlid del 23 a les 12 UTC al 23 a les 21 UTC
Vent 6 kt del Oest/Sud-Oest
Visibilitat: 5000 m
Núvols disperses a una alçada de 3000 ft
Cel ennuvolat a una alçada de 8000 ft
calitja
Evolucionant progressivament
l' 23 a les 16 UTC al 23 a les 18 UTC
Vent 2 kt amb direcció variable
Visibilitat: 3500 m
Núvols disperses a una alçada de 2500 ft
Cel cobert a una alçada de 6000 ft
boirina
Temporalment
l' 23 a les 16 UTC al 23 a les 20 UTC
Visibilitat: 2000 m
Escasses núvols a una alçada de 3000 ft, Cumulonimbus.
tempesta, pluja

TAF: VIDN 231101Z 2312/2321 240006KT 5000 HZ SCT030 BKN080 BECMG 2316/2318 VRB02KT 3500 BR SCT025 OVC060 TEMPO 2316/2320 2000 -TSRA FEW030CB

Observacions i pronòstics meteorològics de més de 4000 aeroports (METAR i TAF).

Les estacions disponibles són els punts grocs i vermells al mapa.

Posi el ratolí al punt desitjat per veure el nom de l'estació.

Feu clic per veure les observacions i els pronòstics meteorològics.

Per canviar el mapa: feu clic els botons verds amb una creu de color negre per apropar; al botó verd amb un guió per allunyar la imatge; o en les fletxes verdes per a mapes adjacents.


METAR-TAF: